Time;durP1;ratioP1;P1;durP2;ratioP2;P2;SDS_P1;SDS_P2;PMS_P1;PMS_P2;Temp;Humidity;BMP_temperature;BMP_pressure;BME280_temperature;BME280_humidity;BME280_pressure;Samples;Min_cycle;Max_cycle;Signal;HPM_P1;HPM_P2
2021/05/29 00:00:49;223850.00;0.75;386.97;0.00;0.00;0.62;;;;;16.20;1.00;;;;;;2272547;61;1068;-82
2021/05/29 00:03:16;98687.00;0.33;171.31;0.00;0.00;0.62;;;;;16.50;1.00;;;;;;2272094;61;1289;-82
2021/05/29 00:05:43;294845.00;0.98;509.06;93711.00;0.31;162.72;;;;;16.70;1.00;;;;;;2271542;61;907;-82
2021/05/29 00:08:12;97369.00;0.32;169.03;0.00;0.00;0.62;;;;;16.90;1.00;;;;;;2272687;61;1663;-83
2021/05/29 00:10:42;378169.00;1.26;652.28;12293.00;0.04;21.92;;;;;17.00;1.00;;;;;;2271459;61;1715;-83
2021/05/29 00:13:10;230205.00;0.77;397.90;0.00;0.00;0.62;;;;;16.90;1.00;;;;;;2271589;61;1372;-82
2021/05/29 00:15:38;108238.00;0.36;187.79;0.00;0.00;0.62;;;;;16.80;1.00;;;;;;2271576;61;1272;-82
2021/05/29 00:18:04;209077.00;0.70;361.55;0.00;0.00;0.62;;;;;16.70;1.00;;;;;;2271148;61;2025;-82
2021/05/29 00:20:33;149135.00;0.50;258.32;0.00;0.00;0.62;;;;;16.50;1.00;;;;;;2271688;61;1096;-82
2021/05/29 00:23:00;206278.00;0.69;356.73;0.00;0.00;0.62;;;;;16.30;1.00;;;;;;2271424;61;1385;-82
2021/05/29 00:25:26;106080.00;0.35;184.07;0.00;0.00;0.62;;;;;16.10;1.00;;;;;;2271629;61;1084;-83
2021/05/29 00:27:53;188093.00;0.63;325.43;0.00;0.00;0.62;;;;;15.70;1.00;;;;;;2270883;61;1322;-81
2021/05/29 00:30:20;267850.00;0.89;462.65;0.00;0.00;0.62;;;;;15.40;1.00;;;;;;2271580;61;1117;-84
2021/05/29 00:32:46;249593.00;0.83;431.25;0.00;0.00;0.62;;;;;15.40;1.00;;;;;;2271240;61;1629;-82
2021/05/29 00:35:13;117921.00;0.39;204.50;0.00;0.00;0.62;;;;;15.60;1.00;;;;;;2280324;61;1134;-86
2021/05/29 00:37:40;216833.00;0.72;374.89;0.00;0.00;0.62;;;;;16.10;1.00;;;;;;2279207;61;1923;-83
2021/05/29 00:40:08;407252.00;1.36;702.27;18349.00;0.06;32.41;;;;;16.40;1.00;;;;;;2272825;61;1139;-83
2021/05/29 00:42:35;182119.00;0.61;315.14;0.00;0.00;0.62;;;;;16.30;1.00;;;;;;2271606;61;1354;-83
2021/05/29 00:45:02;276716.00;0.92;477.89;0.00;0.00;0.62;;;;;16.40;1.00;;;;;;2271557;61;1604;-82
2021/05/29 00:47:30;57286.00;0.19;99.78;0.00;0.00;0.62;;;;;16.50;1.00;;;;;;2270279;61;1718;-82
2021/05/29 00:49:58;137884.00;0.46;238.92;0.00;0.00;0.62;;;;;16.60;1.00;;;;;;2270503;61;1688;-83
2021/05/29 00:52:25;55273.00;0.18;96.30;0.00;0.00;0.62;;;;;16.70;1.00;;;;;;2270030;61;1362;-84
2021/05/29 00:54:53;103223.00;0.34;179.13;0.00;0.00;0.62;;;;;16.70;1.00;;;;;;2270187;61;1187;-83
2021/05/29 00:57:22;106818.00;0.36;185.34;0.00;0.00;0.62;;;;;16.70;1.00;;;;;;2270426;61;1110;-83
2021/05/29 00:59:48;132526.00;0.44;229.68;0.00;0.00;0.62;;;;;16.70;1.00;;;;;;2270385;61;1042;-83
2021/05/29 01:02:17;197874.00;0.66;342.26;0.00;0.00;0.62;;;;;16.20;1.00;;;;;;2269932;61;1335;-83
2021/05/29 01:04:44;168937.00;0.56;292.44;0.00;0.00;0.62;;;;;15.90;1.00;;;;;;2269910;61;2252;-83
2021/05/29 01:07:13;211874.00;0.71;366.36;0.00;0.00;0.62;;;;;15.80;1.00;;;;;;2270406;61;1100;-83
2021/05/29 01:09:40;62739.00;0.21;109.21;0.00;0.00;0.62;;;;;15.80;1.00;;;;;;2270288;61;1124;-83
2021/05/29 01:12:10;78000.00;0.26;135.58;0.00;0.00;0.62;;;;;15.60;1.00;;;;;;2270477;61;1387;-83
2021/05/29 01:14:40;95239.00;0.32;165.35;0.00;0.00;0.62;;;;;15.40;1.00;;;;;;2270402;61;1066;-82
2021/05/29 01:17:07;22237.00;0.07;39.14;0.00;0.00;0.62;;;;;15.70;1.00;;;;;;2270019;61;1120;-83
2021/05/29 01:19:33;25470.00;0.08;44.74;0.00;0.00;0.62;;;;;15.80;1.00;;;;;;2271356;61;2032;-83
2021/05/29 01:22:05;153432.00;0.51;265.72;0.00;0.00;0.62;;;;;15.60;1.00;;;;;;2270608;61;1372;-83
2021/05/29 01:24:31;34863.00;0.12;61.00;0.00;0.00;0.62;;;;;15.60;1.00;;;;;;2271466;61;1128;-82
2021/05/29 01:26:58;102477.00;0.34;177.85;0.00;0.00;0.62;;;;;15.50;1.00;;;;;;2270751;61;1133;-83
2021/05/29 01:29:25;121126.00;0.40;210.02;0.00;0.00;0.62;;;;;15.30;1.00;;;;;;2270676;61;1677;-83
2021/05/29 01:32:00;204808.00;0.68;354.20;0.00;0.00;0.62;;;;;15.70;1.00;;;;;;2270645;61;1285;-84
2021/05/29 01:34:31;23223.00;0.08;40.85;0.00;0.00;0.62;;;;;16.10;1.00;;;;;;2270498;61;1224;-83
2021/05/29 01:36:58;41966.00;0.14;73.29;0.00;0.00;0.62;;;;;16.20;1.00;;;;;;2270426;61;1251;-82
2021/05/29 01:39:25;45534.00;0.15;79.46;0.00;0.00;0.62;;;;;16.30;1.00;;;;;;2270169;61;1957;-83
2021/05/29 01:41:53;114540.00;0.38;198.66;0.00;0.00;0.62;;;;;16.40;1.00;;;;;;2270316;61;1346;-83
2021/05/29 01:44:22;138984.00;0.46;240.82;0.00;0.00;0.62;;;;;16.60;1.00;;;;;;2270449;61;1165;-83
2021/05/29 01:46:50;134733.00;0.45;233.49;0.00;0.00;0.62;;;;;16.50;1.00;;;;;;2270654;61;1167;-83
2021/05/29 01:49:16;67361.00;0.22;117.20;0.00;0.00;0.62;;;;;16.60;1.00;;;;;;2270685;61;1133;-83
2021/05/29 01:51:43;0.00;0.00;0.62;0.00;0.00;0.62;;;;;16.50;1.00;;;;;;2270590;61;1715;-83
2021/05/29 01:54:10;155279.00;0.52;268.90;0.00;0.00;0.62;;;;;16.50;1.00;;;;;;2270605;61;1372;-83
2021/05/29 01:56:37;15560.00;0.05;27.58;0.00;0.00;0.62;;;;;16.50;1.00;;;;;;2270494;61;1168;-82
2021/05/29 01:59:04;95611.00;0.32;166.00;0.00;0.00;0.62;;;;;16.60;1.00;;;;;;2270858;61;1931;-83
2021/05/29 02:01:30;104056.00;0.35;180.57;0.00;0.00;0.62;;;;;16.70;1.00;;;;;;2271093;61;1116;-83
2021/05/29 02:03:57;219900.00;0.73;380.17;0.00;0.00;0.62;;;;;16.40;1.00;;;;;;2270996;61;1358;-83
2021/05/29 02:06:23;111149.00;0.37;192.81;0.00;0.00;0.62;;;;;16.30;1.00;;;;;;2271377;61;1166;-82
2021/05/29 02:08:49;142419.00;0.47;246.74;0.00;0.00;0.62;;;;;16.40;1.00;;;;;;2271854;61;1120;-83
2021/05/29 02:11:16;185378.00;0.62;320.75;0.00;0.00;0.62;;;;;16.50;1.00;;;;;;2271020;61;1179;-83
2021/05/29 02:13:43;224842.00;0.75;388.67;8469.00;0.03;15.30;;;;;16.50;1.00;;;;;;2270690;61;1359;-83
2021/05/29 02:16:12;108465.00;0.36;188.18;0.00;0.00;0.62;;;;;16.50;1.00;;;;;;2271061;61;1117;-83
2021/05/29 02:18:39;220759.00;0.74;381.65;0.00;0.00;0.62;;;;;16.40;1.00;;;;;;2271479;61;1930;-83
2021/05/29 02:21:08;31973.00;0.11;56.00;0.00;0.00;0.62;;;;;16.50;1.00;;;;;;2271890;61;1123;-83
2021/05/29 02:23:39;41124.00;0.14;71.83;0.00;0.00;0.62;;;;;16.30;1.00;;;;;;2270510;61;1344;-83
2021/05/29 02:26:08;0.00;0.00;0.62;0.00;0.00;0.62;;;;;16.10;1.00;;;;;;2270553;61;1164;-82
2021/05/29 02:28:36;0.00;0.00;0.62;0.00;0.00;0.62;;;;;15.90;1.00;;;;;;2270514;61;1178;-83
2021/05/29 02:31:04;0.00;0.00;0.62;0.00;0.00;0.62;;;;;16.10;1.00;;;;;;2270520;61;1124;-84
2021/05/29 02:33:30;0.00;0.00;0.62;0.00;0.00;0.62;;;;;16.10;1.00;;;;;;2271819;61;1368;-82
2021/05/29 02:35:57;0.00;0.00;0.62;0.00;0.00;0.62;;;;;16.00;1.00;;;;;;2270307;61;1071;-82
2021/05/29 02:38:24;75586.00;0.25;131.41;0.00;0.00;0.62;;;;;16.00;1.00;;;;;;2270061;61;2019;-82
2021/05/29 02:40:51;51384.00;0.17;89.58;0.00;0.00;0.62;;;;;16.10;1.00;;;;;;2270036;61;1140;-83
2021/05/29 02:43:17;143219.00;0.48;248.12;0.00;0.00;0.62;;;;;16.20;1.00;;;;;;2270276;61;1343;-83
2021/05/29 02:45:44;84829.00;0.28;147.38;0.00;0.00;0.62;;;;;16.00;1.00;;;;;;2270117;61;1136;-82
2021/05/29 02:48:13;0.00;0.00;0.62;0.00;0.00;0.62;;;;;15.90;1.00;;;;;;2270358;61;1104;-82
2021/05/29 02:50:41;89103.00;0.30;154.76;0.00;0.00;0.62;;;;;15.90;1.00;;;;;;2270254;61;1235;-83
2021/05/29 02:53:08;100666.00;0.34;174.72;0.00;0.00;0.62;;;;;16.00;1.00;;;;;;2270537;61;1380;-83
2021/05/29 02:55:34;129587.00;0.43;224.62;58606.00;0.20;102.07;;;;;15.80;1.00;;;;;;2270458;61;1129;-83
2021/05/29 02:58:01;400.00;0.00;1.31;0.00;0.00;0.62;;;;;15.90;1.00;;;;;;2270632;61;2018;-82
2021/05/29 03:00:31;83994.00;0.28;145.94;0.00;0.00;0.62;;;;;16.00;1.00;;;;;;2270523;61;1173;-82
2021/05/29 03:02:59;0.00;0.00;0.62;0.00;0.00;0.62;;;;;15.80;1.00;;;;;;2272911;61;1372;-82
2021/05/29 03:05:27;0.00;0.00;0.62;0.00;0.00;0.62;;;;;15.40;1.00;;;;;;2278833;61;1066;-82
2021/05/29 03:07:53;48664.00;0.16;84.88;0.00;0.00;0.62;;;;;15.50;1.00;;;;;;2278861;61;1750;-82
2021/05/29 03:10:22;47356.00;0.16;82.61;0.00;0.00;0.62;;;;;15.30;1.00;;;;;;2278692;61;1505;-80
2021/05/29 03:12:49;29407.00;0.10;51.56;0.00;0.00;0.62;;;;;14.80;1.00;;;;;;2272022;61;1476;-82
2021/05/29 03:15:18;0.00;0.00;0.62;0.00;0.00;0.62;;;;;14.50;1.00;;;;;;2278568;61;1232;-81
2021/05/29 03:17:45;88212.00;0.29;153.22;19446.00;0.06;34.31;;;;;14.30;1.00;;;;;;2280411;61;2002;-82
2021/05/29 03:20:14;12452.00;0.04;22.20;0.00;0.00;0.62;;;;;14.40;1.00;;;;;;2280593;61;1224;-85
2021/05/29 03:22:42;0.00;0.00;0.62;0.00;0.00;0.62;;;;;14.80;1.00;;;;;;2280615;61;1372;-85
2021/05/29 03:25:10;0.00;0.00;0.62;0.00;0.00;0.62;;;;;15.20;1.00;;;;;;2280682;61;1101;-86
2021/05/29 03:27:37;0.00;0.00;0.62;0.00;0.00;0.62;;;;;15.50;1.00;;;;;;2277342;61;1110;-82
2021/05/29 03:30:06;72086.00;0.24;125.36;0.00;0.00;0.62;;;;;15.70;1.00;;;;;;2270290;61;1234;-82
2021/05/29 03:32:32;20987.00;0.07;36.98;0.00;0.00;0.62;;;;;15.80;1.00;;;;;;2270131;61;1265;-82
2021/05/29 03:34:58;7704.00;0.03;13.97;0.00;0.00;0.62;;;;;15.60;1.00;;;;;;2269836;61;1143;-82
2021/05/29 03:37:25;35968.00;0.12;62.91;0.00;0.00;0.62;;;;;15.60;1.00;;;;;;2270101;61;1213;-82
2021/05/29 03:39:52;36784.00;0.12;64.32;0.00;0.00;0.62;;;;;15.80;1.00;;;;;;2269837;61;1955;-81
2021/05/29 03:42:19;0.00;0.00;0.62;0.00;0.00;0.62;;;;;16.00;1.00;;;;;;2269791;61;1544;-82
2021/05/29 03:44:45;0.00;0.00;0.62;0.00;0.00;0.62;;;;;16.10;1.00;;;;;;2269962;61;1156;-82
2021/05/29 03:47:11;0.00;0.00;0.62;0.00;0.00;0.62;;;;;16.30;1.00;;;;;;2269583;61;1486;-82
2021/05/29 03:49:38;124610.00;0.42;216.03;32638.00;0.11;57.15;;;;;16.30;1.00;;;;;;2269979;61;1108;-82
2021/05/29 03:52:07;0.00;0.00;0.62;0.00;0.00;0.62;;;;;16.20;1.00;;;;;;2269988;61;1226;-82
2021/05/29 03:54:33;6927.00;0.02;12.62;0.00;0.00;0.62;;;;;16.20;1.00;;;;;;2269852;61;1163;-82
2021/05/29 03:57:01;5934.00;0.02;10.90;0.00;0.00;0.62;;;;;16.10;1.00;;;;;;2269561;61;1652;-82
2021/05/29 03:59:27;0.00;0.00;0.62;0.00;0.00;0.62;;;;;16.10;1.00;;;;;;2270022;61;2024;-82
2021/05/29 04:01:54;19295.00;0.06;34.05;0.00;0.00;0.62;;;;;16.10;1.00;;;;;;2269660;61;1372;-83
2021/05/29 04:04:20;0.00;0.00;0.62;0.00;0.00;0.62;;;;;16.20;1.00;;;;;;2270169;61;1085;-82
2021/05/29 04:06:47;61058.00;0.20;106.31;0.00;0.00;0.62;;;;;16.20;1.00;;;;;;2269746;61;1120;-82
2021/05/29 04:09:13;173360.00;0.58;300.05;20145.00;0.07;35.52;;;;;16.20;1.00;;;;;;2269335;61;1180;-82
2021/05/29 04:11:40;155387.00;0.52;269.09;64749.00;0.22;112.69;;;;;16.30;1.00;;;;;;2269477;61;1137;-82
2021/05/29 04:14:09;0.00;0.00;0.62;0.00;0.00;0.62;;;;;16.30;1.00;;;;;;2269788;61;1234;-82
2021/05/29 04:16:35;0.00;0.00;0.62;0.00;0.00;0.62;;;;;15.90;1.00;;;;;;2269655;61;1236;-82
2021/05/29 04:19:02;190248.00;0.63;329.14;43215.00;0.14;75.45;;;;;15.90;1.00;;;;;;2269511;61;1994;-82
2021/05/29 04:21:28;96126.00;0.32;166.88;0.00;0.00;0.62;;;;;15.90;1.00;;;;;;2269498;61;1680;-82
2021/05/29 04:23:55;6145.00;0.02;11.27;0.00;0.00;0.62;;;;;15.40;1.00;;;;;;2269426;61;1261;-82
2021/05/29 04:26:22;0.00;0.00;0.62;0.00;0.00;0.62;;;;;15.10;1.00;;;;;;2269698;61;1243;-82
2021/05/29 04:28:50;72989.00;0.24;126.93;0.00;0.00;0.62;;;;;15.00;1.00;;;;;;2269705;61;1089;-82
2021/05/29 04:31:18;189943.00;0.63;328.61;53090.00;0.18;92.53;;;;;14.50;1.00;;;;;;2269861;61;1119;-80
2021/05/29 04:33:44;106577.00;0.36;184.92;39456.00;0.13;68.95;;;;;14.10;1.00;;;;;;2269706;61;1360;-80
2021/05/29 04:36:11;140647.00;0.47;243.69;21289.00;0.07;37.50;;;;;14.00;1.00;;;;;;2269549;61;1185;-81
2021/05/29 04:38:37;0.00;0.00;0.62;0.00;0.00;0.62;;;;;14.30;1.00;;;;;;2269648;61;1939;-81
2021/05/29 04:41:03;114243.00;0.38;198.15;47754.00;0.16;83.30;;;;;14.40;1.00;;;;;;2269543;61;1153;-81
2021/05/29 04:43:30;60429.00;0.20;105.22;0.00;0.00;0.62;;;;;14.50;1.00;;;;;;2269629;61;1245;-81
2021/05/29 04:45:57;0.00;0.00;0.62;0.00;0.00;0.62;;;;;15.00;1.00;;;;;;2270555;61;1086;-83
2021/05/29 04:48:25;0.00;0.00;0.62;0.00;0.00;0.62;;;;;15.00;1.00;;;;;;2270454;61;1109;-83
2021/05/29 04:53:36;28639.00;0.10;50.23;0.00;0.00;0.62;;;;;15.10;1.00;;;;;;2270382;61;1338;-82
2021/05/29 04:56:03;14880.00;0.05;26.40;0.00;0.00;0.62;;;;;15.20;1.00;;;;;;2269952;61;1168;-82
2021/05/29 04:58:30;25517.00;0.09;44.82;0.00;0.00;0.62;;;;;14.90;1.00;;;;;;2270872;61;2016;-82
2021/05/29 05:00:56;17742.00;0.06;31.36;0.00;0.00;0.62;;;;;14.40;1.00;;;;;;2270525;61;1152;-82
2021/05/29 05:03:24;60288.00;0.20;104.97;0.00;0.00;0.62;;;;;14.00;1.00;;;;;;2270754;61;1299;-82
2021/05/29 05:05:51;0.00;0.00;0.62;0.00;0.00;0.62;;;;;14.30;1.00;;;;;;2270520;61;1223;-82
2021/05/29 05:08:18;0.00;0.00;0.62;0.00;0.00;0.62;;;;;14.20;1.00;;;;;;2271910;61;1197;-82
2021/05/29 05:10:44;10092.00;0.03;18.11;0.00;0.00;0.62;;;;;14.60;1.00;;;;;;2271796;61;1173;-82
2021/05/29 05:13:11;0.00;0.00;0.62;0.00;0.00;0.62;;;;;14.60;1.00;;;;;;2270792;61;1764;-83
2021/05/29 05:15:37;0.00;0.00;0.62;0.00;0.00;0.62;;;;;14.70;1.00;;;;;;2270656;61;1194;-83
2021/05/29 05:18:07;14367.00;0.05;25.51;0.00;0.00;0.62;;;;;15.10;1.00;;;;;;2270069;61;1939;-82
2021/05/29 05:20:35;0.00;0.00;0.62;0.00;0.00;0.62;;;;;15.40;1.00;;;;;;2269977;61;1239;-83
2021/05/29 05:23:01;95146.00;0.32;165.19;28967.00;0.10;50.80;;;;;15.80;1.00;;;;;;2270219;61;1374;-82
2021/05/29 05:25:28;79297.00;0.26;137.82;0.00;0.00;0.62;;;;;15.90;1.00;;;;;;2270144;61;1128;-83
2021/05/29 05:27:54;0.00;0.00;0.62;0.00;0.00;0.62;;;;;16.20;1.00;;;;;;2270702;61;1223;-83
2021/05/29 05:30:22;29557.00;0.10;51.82;0.00;0.00;0.62;;;;;16.50;1.00;;;;;;2270094;61;1130;-83
2021/05/29 05:32:48;0.00;0.00;0.62;0.00;0.00;0.62;;;;;16.50;1.00;;;;;;2270186;61;1375;-83
2021/05/29 05:35:16;16585.00;0.06;29.36;0.00;0.00;0.62;;;;;17.20;1.00;;;;;;2270582;61;1102;-83
2021/05/29 05:37:45;137545.00;0.46;238.34;27323.00;0.09;47.95;;;;;17.40;1.00;;;;;;2270316;61;1139;-83
2021/05/29 05:40:13;38539.00;0.13;67.36;0.00;0.00;0.62;;;;;18.00;1.00;;;;;;2270549;61;1931;-83
2021/05/29 05:42:39;0.00;0.00;0.62;0.00;0.00;0.62;;;;;19.20;1.00;;;;;;2270808;61;1455;-81
2021/05/29 05:45:07;0.00;0.00;0.62;0.00;0.00;0.62;;;;;19.80;1.00;;;;;;2270586;61;1155;-81
2021/05/29 05:47:34;182968.00;0.61;316.60;0.00;0.00;0.62;;;;;21.10;1.00;;;;;;2271275;61;1292;-83
2021/05/29 05:50:01;0.00;0.00;0.62;0.00;0.00;0.62;;;;;22.30;1.00;;;;;;2271485;61;1140;-82
2021/05/29 05:52:27;0.00;0.00;0.62;0.00;0.00;0.62;;;;;23.50;1.00;;;;;;2271690;61;1391;-81
2021/05/29 05:54:54;0.00;0.00;0.62;0.00;0.00;0.62;;;;;25.20;1.00;;;;;;2272019;61;1102;-82
2021/05/29 05:57:21;0.00;0.00;0.62;0.00;0.00;0.62;;;;;26.20;1.00;;;;;;2271881;61;1188;-82
2021/05/29 05:59:47;23272.00;0.08;40.94;0.00;0.00;0.62;;;;;26.80;1.00;;;;;;2271993;61;2002;-82
2021/05/29 06:02:13;0.00;0.00;0.62;0.00;0.00;0.62;;;;;25.90;1.00;;;;;;2273114;61;1354;-82
2021/05/29 06:04:40;0.00;0.00;0.62;0.00;0.00;0.62;;;;;25.20;1.00;;;;;;2275477;61;1097;-82
2021/05/29 06:07:06;0.00;0.00;0.62;0.00;0.00;0.62;;;;;25.40;1.00;;;;;;2275323;61;1108;-82
2021/05/29 06:09:33;0.00;0.00;0.62;0.00;0.00;0.62;;;;;25.50;1.00;;;;;;2276170;61;1094;-82
2021/05/29 06:12:00;0.00;0.00;0.62;0.00;0.00;0.62;;;;;25.10;1.00;;;;;;2279733;61;1395;-84
2021/05/29 06:19:56;0.00;0.00;0.62;0.00;0.00;0.62;;;;;27.00;1.00;;;;;;2271811;61;1955;-83
2021/05/29 06:22:23;0.00;0.00;0.62;0.00;0.00;0.62;;;;;26.30;1.00;;;;;;2271467;61;1272;-83
2021/05/29 06:24:50;126423.00;0.42;219.16;60776.00;0.20;105.82;;;;;26.10;1.00;;;;;;2271236;61;1354;-83
2021/05/29 06:27:17;0.00;0.00;0.62;0.00;0.00;0.62;;;;;27.00;1.00;;;;;;2271977;61;1159;-83
2021/05/29 06:29:44;0.00;0.00;0.62;0.00;0.00;0.62;;;;;27.30;1.00;;;;;;2271981;61;1151;-84
2021/05/29 06:32:13;0.00;0.00;0.62;0.00;0.00;0.62;;;;;27.20;1.00;;;;;;2271993;61;1353;-83
2021/05/29 06:34:39;31796.00;0.11;55.69;0.00;0.00;0.62;;;;;25.80;1.00;;;;;;2270227;61;1094;-82
2021/05/29 06:37:07;52131.00;0.17;90.87;0.00;0.00;0.62;;;;;25.30;1.00;;;;;;2270772;61;1176;-81
2021/05/29 06:39:33;108660.00;0.36;188.52;42269.00;0.14;73.81;;;;;24.50;1.00;;;;;;2271320;61;1923;-83
2021/05/29 06:42:01;83474.00;0.28;145.04;0.00;0.00;0.62;;;;;24.00;1.00;;;;;;2271116;61;1361;-83
2021/05/29 06:44:28;0.00;0.00;0.62;0.00;0.00;0.62;;;;;23.40;1.00;;;;;;2278113;61;1172;-88
2021/05/29 06:46:54;0.00;0.00;0.62;0.00;0.00;0.62;;;;;23.80;1.00;;;;;;2274390;61;1096;-83
2021/05/29 06:49:21;0.00;0.00;0.62;0.00;0.00;0.62;;;;;25.70;1.00;;;;;;2278649;61;1131;-86
2021/05/29 06:52:01;0.00;0.00;0.62;0.00;0.00;0.62;;;;;27.50;1.00;;;;;;2269516;61;1069;-85
2021/05/29 06:54:39;0.00;0.00;0.62;0.00;0.00;0.62;;;;;28.90;1.00;;;;;;2280346;61;1866;-85
2021/05/29 06:59:51;0.00;0.00;0.62;0.00;0.00;0.62;;;;;30.50;1.00;;;;;;2280588;61;1919;-87
2021/05/29 07:02:18;118371.00;0.39;205.27;51510.00;0.17;89.80;;;;;31.90;1.00;;;;;;2280354;61;1343;-88
2021/05/29 07:04:44;107588.00;0.36;186.67;30388.00;0.10;53.25;;;;;31.70;1.00;;;;;;2280576;61;1264;-88
2021/05/29 07:07:10;0.00;0.00;0.62;0.00;0.00;0.62;;;;;31.90;1.00;;;;;;2280595;61;1029;-87
2021/05/29 07:09:37;0.00;0.00;0.62;0.00;0.00;0.62;;;;;31.10;1.00;;;;;;2280519;61;1130;-87
2021/05/29 07:12:04;0.00;0.00;0.62;0.00;0.00;0.62;;;;;30.30;1.00;;;;;;2280205;61;1339;-88
2021/05/29 07:14:30;149326.00;0.50;258.65;29804.00;0.10;52.24;;;;;29.80;1.00;;;;;;2280504;61;1026;-88
2021/05/29 07:17:00;0.00;0.00;0.62;0.00;0.00;0.62;;;;;29.40;1.00;;;;;;2280504;61;1070;-87
2021/05/29 07:19:26;0.00;0.00;0.62;0.00;0.00;0.62;;;;;29.70;1.00;;;;;;2280453;61;1992;-87
2021/05/29 07:21:53;0.00;0.00;0.62;0.00;0.00;0.62;;;;;29.80;1.00;;;;;;2271679;61;1424;-88
2021/05/29 07:24:20;232161.00;0.77;401.27;90021.00;0.30;156.34;;;;;29.60;1.00;;;;;;2263794;61;1001;-87
2021/05/29 07:26:48;0.00;0.00;0.62;0.00;0.00;0.62;;;;;29.60;1.00;;;;;;2263674;61;1098;-86
2021/05/29 07:29:16;708.00;0.00;1.85;0.00;0.00;0.62;;;;;28.90;1.00;;;;;;2260205;61;999;-87
2021/05/29 07:31:43;104364.00;0.35;181.10;35763.00;0.12;62.56;;;;;29.00;1.00;;;;;;2263867;61;1162;-87
2021/05/29 07:34:10;0.00;0.00;0.62;0.00;0.00;0.62;;;;;29.70;1.00;;;;;;2260420;61;1413;-88
2021/05/29 07:36:37;0.00;0.00;0.62;0.00;0.00;0.62;;;;;30.00;1.00;;;;;;2263718;61;1074;-88
2021/05/29 07:39:04;223364.00;0.74;386.13;37334.00;0.12;65.28;;;;;30.30;1.00;;;;;;2258783;61;1916;-88
2021/05/29 07:41:32;142439.00;0.47;246.78;77116.00;0.26;134.06;;;;;30.70;1.00;;;;;;2276215;61;1012;-87
2021/05/29 07:43:59;21844.00;0.07;38.46;0.00;0.00;0.62;;;;;31.00;1.00;;;;;;2276482;61;1246;-89
2021/05/29 07:46:26;0.00;0.00;0.62;0.00;0.00;0.62;;;;;30.50;1.00;;;;;;2280320;61;1035;-87
2021/05/29 07:48:53;13596.00;0.05;24.18;0.00;0.00;0.62;;;;;30.70;1.00;;;;;;2273388;61;961;-87
2021/05/29 07:51:20;0.00;0.00;0.62;0.00;0.00;0.62;;;;;31.20;1.00;;;;;;2280357;61;1238;-88
2021/05/29 07:53:48;0.00;0.00;0.62;0.00;0.00;0.62;;;;;31.40;1.00;;;;;;2276560;61;1408;-88
2021/05/29 07:56:16;0.00;0.00;0.62;0.00;0.00;0.62;;;;;31.10;1.00;;;;;;2280372;61;1078;-87
2021/05/29 07:58:43;0.00;0.00;0.62;0.00;0.00;0.62;;;;;31.00;1.00;;;;;;2280254;61;2005;-88
2021/05/29 08:01:10;0.00;0.00;0.62;0.00;0.00;0.62;;;;;31.10;1.00;;;;;;2280327;61;1596;-89
2021/05/29 08:03:37;0.00;0.00;0.62;0.00;0.00;0.62;;;;;31.50;1.00;;;;;;2280324;61;1801;-88
2021/05/29 08:06:08;13728.00;0.05;24.41;0.00;0.00;0.62;;;;;30.80;1.00;;;;;;2280353;61;1058;-87
2021/05/29 08:08:36;0.00;0.00;0.62;0.00;0.00;0.62;;;;;29.70;1.00;;;;;;2276615;61;1030;-87
2021/05/29 08:11:03;0.00;0.00;0.62;0.00;0.00;0.62;;;;;28.70;1.00;;;;;;2280375;61;1027;-88
2021/05/29 08:13:30;0.00;0.00;0.62;0.00;0.00;0.62;;;;;28.30;1.00;;;;;;2280338;61;1300;-89
2021/05/29 08:15:56;0.00;0.00;0.62;0.00;0.00;0.62;;;;;28.30;1.00;;;;;;2271667;61;940;-88
2021/05/29 08:18:23;0.00;0.00;0.62;0.00;0.00;0.62;;;;;28.80;1.00;;;;;;2271780;61;1927;-89
2021/05/29 08:20:51;0.00;0.00;0.62;0.00;0.00;0.62;;;;;29.50;1.00;;;;;;2271782;61;1025;-88
2021/05/29 08:23:18;0.00;0.00;0.62;0.00;0.00;0.62;;;;;30.10;1.00;;;;;;2265015;61;1393;-88
2021/05/29 08:25:46;85098.00;0.28;147.84;0.00;0.00;0.62;;;;;29.00;1.00;;;;;;2265096;61;996;-88
2021/05/29 08:28:13;10651.00;0.04;19.08;0.00;0.00;0.62;;;;;28.70;1.00;;;;;;2271769;61;1035;-88
2021/05/29 08:30:39;0.00;0.00;0.62;0.00;0.00;0.62;;;;;29.20;1.00;;;;;;2271729;61;1015;-87
2021/05/29 08:33:06;102454.00;0.34;177.81;37320.00;0.12;65.25;;;;;29.00;1.00;;;;;;2266090;61;1451;-87
2021/05/29 08:35:33;0.00;0.00;0.62;0.00;0.00;0.62;;;;;29.40;1.00;;;;;;2280347;61;1091;-87
2021/05/29 08:37:59;41618.00;0.14;72.69;0.00;0.00;0.62;;;;;27.80;1.00;;;;;;2276585;61;1055;-87
2021/05/29 08:40:26;72896.00;0.24;126.76;0.00;0.00;0.62;;;;;27.00;1.00;;;;;;2276528;61;2010;-87
2021/05/29 08:42:53;113238.00;0.38;196.42;0.00;0.00;0.62;;;;;26.70;1.00;;;;;;2280277;61;1276;-87
2021/05/29 08:45:20;0.00;0.00;0.62;0.00;0.00;0.62;;;;;25.90;1.00;;;;;;2276505;61;1068;-89
2021/05/29 08:47:48;0.00;0.00;0.62;0.00;0.00;0.62;;;;;25.50;1.00;;;;;;2280292;61;1038;-87
2021/05/29 08:50:15;16245.00;0.05;28.77;0.00;0.00;0.62;;;;;25.80;1.00;;;;;;2275714;61;988;-87
2021/05/29 08:52:42;9853.00;0.03;17.69;0.00;0.00;0.62;;;;;25.80;1.00;;;;;;2268934;61;1399;-88
2021/05/29 08:55:11;0.00;0.00;0.62;0.00;0.00;0.62;;;;;25.90;1.00;;;;;;2275821;61;1063;-87
2021/05/29 08:57:37;40074.00;0.13;70.02;0.00;0.00;0.62;;;;;25.60;1.00;;;;;;2275689;61;1727;-87
2021/05/29 09:00:09;0.00;0.00;0.62;0.00;0.00;0.62;;;;;24.50;1.00;;;;;;2275745;61;1980;-88
2021/05/29 09:02:55;0.00;0.00;0.62;0.00;0.00;0.62;;;;;23.80;1.00;;;;;;2275740;61;1335;-88
2021/05/29 09:05:32;0.00;0.00;0.62;0.00;0.00;0.62;;;;;24.30;1.00;;;;;;2267593;61;1045;-87
2021/05/29 09:08:03;30307.00;0.10;53.11;0.00;0.00;0.62;;;;;24.60;1.00;;;;;;2258648;61;1051;-87
2021/05/29 09:10:30;4693.00;0.02;8.75;0.00;0.00;0.62;;;;;24.30;1.00;;;;;;2253745;61;984;-87
2021/05/29 09:13:04;20194.00;0.07;35.61;0.00;0.00;0.62;;;;;23.70;1.00;;;;;;2253714;61;1445;-88
2021/05/29 09:15:54;0.00;0.00;0.62;0.00;0.00;0.62;;;;;23.30;1.00;;;;;;2260287;61;1001;-88
2021/05/29 09:18:35;0.00;0.00;0.62;0.00;0.00;0.62;;;;;24.10;1.00;;;;;;2243690;61;1918;-88
2021/05/29 09:21:25;0.00;0.00;0.62;0.00;0.00;0.62;;;;;23.70;1.00;;;;;;2243755;61;1026;-84
2021/05/29 09:23:54;310708.00;1.04;536.33;91759.00;0.31;159.34;;;;;22.70;1.00;;;;;;2249307;61;1417;-86
2021/05/29 09:26:23;129264.00;0.43;224.06;0.00;0.00;0.62;;;;;21.90;1.00;;;;;;2259476;61;1035;-85
2021/05/29 09:28:51;58741.00;0.20;102.30;0.00;0.00;0.62;;;;;21.50;1.00;;;;;;2256943;61;1007;-85
2021/05/29 09:31:21;0.00;0.00;0.62;0.00;0.00;0.62;;;;;21.40;1.00;;;;;;2256993;61;1012;-86
2021/05/29 09:33:47;24752.00;0.08;43.50;0.00;0.00;0.62;;;;;21.90;1.00;;;;;;2256924;61;1481;-87
2021/05/29 09:36:16;0.00;0.00;0.62;0.00;0.00;0.62;;;;;22.30;1.00;;;;;;2256973;61;1007;-85
2021/05/29 09:38:44;0.00;0.00;0.62;0.00;0.00;0.62;;;;;21.90;1.00;;;;;;2263513;61;1990;-85
2021/05/29 09:41:20;40836.00;0.14;71.33;0.00;0.00;0.62;;;;;22.60;1.00;;;;;;2256895;61;1161;-86
2021/05/29 09:43:58;8531.00;0.03;15.40;0.00;0.00;0.62;;;;;22.70;1.00;;;;;;2257081;61;1342;-86
2021/05/29 09:46:27;0.00;0.00;0.62;0.00;0.00;0.62;;;;;22.70;1.00;;;;;;2257414;61;1130;-86
2021/05/29 09:48:56;114636.00;0.38;198.83;41060.00;0.14;71.72;;;;;22.30;1.00;;;;;;2264259;61;952;-86
2021/05/29 09:51:23;6915.00;0.02;12.60;0.00;0.00;0.62;;;;;21.80;1.00;;;;;;2257644;61;997;-86
2021/05/29 09:53:52;275221.00;0.92;475.32;60477.00;0.20;105.30;;;;;22.20;1.00;;;;;;2256169;61;1441;-87
2021/05/29 09:56:27;0.00;0.00;0.62;0.00;0.00;0.62;;;;;22.20;1.00;;;;;;2269515;61;1018;-87
2021/05/29 09:59:06;81836.00;0.27;142.21;11765.00;0.04;21.01;;;;;22.20;1.00;;;;;;2269547;61;1919;-87
2021/05/29 10:01:45;0.00;0.00;0.62;0.00;0.00;0.62;;;;;22.30;1.00;;;;;;2269558;61;941;-87
2021/05/29 10:04:14;69115.00;0.23;120.23;0.00;0.00;0.62;;;;;22.40;1.00;;;;;;2269560;61;1314;-87
2021/05/29 10:06:41;28878.00;0.10;50.64;0.00;0.00;0.62;;;;;21.90;1.00;;;;;;2269629;61;1008;-86
2021/05/29 10:09:08;9547.00;0.03;17.16;0.00;0.00;0.62;;;;;21.90;1.00;;;;;;2269583;61;1008;-87
2021/05/29 10:11:37;188648.00;0.63;326.38;0.00;0.00;0.62;;;;;22.90;1.00;;;;;;2271232;61;968;-88
2021/05/29 10:14:07;126545.00;0.42;219.37;0.00;0.00;0.62;;;;;23.20;1.00;;;;;;2277002;61;1401;-87
2021/05/29 10:16:34;141761.00;0.47;245.61;0.00;0.00;0.62;;;;;22.40;1.00;;;;;;2277033;61;966;-86
2021/05/29 10:19:02;256868.00;0.86;443.76;0.00;0.00;0.62;;;;;22.00;1.00;;;;;;2280810;61;1910;-85
2021/05/29 10:21:31;37995.00;0.13;66.42;0.00;0.00;0.62;;;;;21.80;1.00;;;;;;2273696;61;1027;-84
2021/05/29 10:24:00;153160.00;0.51;265.25;0.00;0.00;0.62;;;;;22.20;1.00;;;;;;2273639;61;1382;-87
2021/05/29 10:26:28;37457.00;0.12;65.49;0.00;0.00;0.62;;;;;22.40;1.00;;;;;;2276195;61;1019;-86
2021/05/29 10:28:56;57781.00;0.19;100.64;0.00;0.00;0.62;;;;;22.70;1.00;;;;;;2269513;61;981;-86
2021/05/29 10:31:23;41067.00;0.14;71.73;0.00;0.00;0.62;;;;;22.40;1.00;;;;;;2276247;61;1025;-85